sensor_id;sensor_type;location;lat;lon;timestamp;P1;durP1;ratioP1;P2;durP2;ratioP2
56718;SDS011;42597;40.636;0.278;2023-05-07T00:01:36;3.60;;;1.40;;
56718;SDS011;42597;40.636;0.278;2023-05-07T00:04:01;3.15;;;1.65;;
56718;SDS011;42597;40.636;0.278;2023-05-07T00:06:28;4.38;;;1.58;;
56718;SDS011;42597;40.636;0.278;2023-05-07T00:08:54;1.40;;;0.90;;
56718;SDS011;42597;40.636;0.278;2023-05-07T00:11:21;4.65;;;1.50;;
56718;SDS011;42597;40.636;0.278;2023-05-07T00:13:47;2.40;;;1.42;;
56718;SDS011;42597;40.636;0.278;2023-05-07T00:16:13;2.40;;;1.20;;
56718;SDS011;42597;40.636;0.278;2023-05-07T00:18:38;3.13;;;1.50;;
56718;SDS011;42597;40.636;0.278;2023-05-07T00:21:04;3.42;;;1.10;;
56718;SDS011;42597;40.636;0.278;2023-05-07T00:23:30;9.43;;;1.77;;
56718;SDS011;42597;40.636;0.278;2023-05-07T00:25:55;1.98;;;1.38;;
56718;SDS011;42597;40.636;0.278;2023-05-07T00:28:21;2.75;;;1.40;;
56718;SDS011;42597;40.636;0.278;2023-05-07T00:30:47;3.70;;;1.00;;
56718;SDS011;42597;40.636;0.278;2023-05-07T00:33:12;2.03;;;1.17;;
56718;SDS011;42597;40.636;0.278;2023-05-07T00:35:38;2.92;;;1.58;;
56718;SDS011;42597;40.636;0.278;2023-05-07T00:38:03;2.15;;;1.10;;
56718;SDS011;42597;40.636;0.278;2023-05-07T00:40:29;2.25;;;1.20;;
56718;SDS011;42597;40.636;0.278;2023-05-07T00:42:54;2.63;;;1.30;;
56718;SDS011;42597;40.636;0.278;2023-05-07T00:45:24;3.38;;;1.38;;
56718;SDS011;42597;40.636;0.278;2023-05-07T00:47:53;8.32;;;1.85;;
56718;SDS011;42597;40.636;0.278;2023-05-07T00:50:20;3.40;;;1.17;;
56718;SDS011;42597;40.636;0.278;2023-05-07T00:52:46;5.65;;;1.85;;
56718;SDS011;42597;40.636;0.278;2023-05-07T00:55:11;2.97;;;1.40;;
56718;SDS011;42597;40.636;0.278;2023-05-07T00:57:40;4.03;;;1.42;;
56718;SDS011;42597;40.636;0.278;2023-05-07T01:00:07;3.92;;;1.65;;
56718;SDS011;42597;40.636;0.278;2023-05-07T01:02:35;4.20;;;1.67;;
56718;SDS011;42597;40.636;0.278;2023-05-07T01:05:01;2.75;;;1.40;;
56718;SDS011;42597;40.636;0.278;2023-05-07T01:07:31;2.67;;;1.40;;
56718;SDS011;42597;40.636;0.278;2023-05-07T01:09:58;3.17;;;1.52;;
56718;SDS011;42597;40.636;0.278;2023-05-07T01:12:24;4.40;;;1.75;;
56718;SDS011;42597;40.636;0.278;2023-05-07T01:14:50;2.83;;;1.20;;
56718;SDS011;42597;40.636;0.278;2023-05-07T01:17:16;2.65;;;1.30;;
56718;SDS011;42597;40.636;0.278;2023-05-07T01:19:42;3.63;;;1.60;;
56718;SDS011;42597;40.636;0.278;2023-05-07T01:22:08;2.30;;;1.20;;
56718;SDS011;42597;40.636;0.278;2023-05-07T01:24:36;2.45;;;1.20;;
56718;SDS011;42597;40.636;0.278;2023-05-07T01:27:02;5.15;;;1.55;;
56718;SDS011;42597;40.636;0.278;2023-05-07T01:29:29;2.40;;;1.30;;
56718;SDS011;42597;40.636;0.278;2023-05-07T01:31:58;3.08;;;1.42;;
56718;SDS011;42597;40.636;0.278;2023-05-07T01:34:25;3.00;;;1.15;;
56718;SDS011;42597;40.636;0.278;2023-05-07T01:36:54;6.37;;;1.37;;
56718;SDS011;42597;40.636;0.278;2023-05-07T01:39:22;2.15;;;1.40;;
56718;SDS011;42597;40.636;0.278;2023-05-07T01:41:50;5.13;;;1.13;;
56718;SDS011;42597;40.636;0.278;2023-05-07T01:44:15;4.80;;;1.73;;
56718;SDS011;42597;40.636;0.278;2023-05-07T01:46:43;3.03;;;1.45;;
56718;SDS011;42597;40.636;0.278;2023-05-07T01:49:09;3.25;;;1.30;;
56718;SDS011;42597;40.636;0.278;2023-05-07T01:51:35;2.38;;;1.13;;
56718;SDS011;42597;40.636;0.278;2023-05-07T01:54:01;3.05;;;1.00;;
56718;SDS011;42597;40.636;0.278;2023-05-07T01:56:27;2.83;;;1.27;;
56718;SDS011;42597;40.636;0.278;2023-05-07T01:58:52;2.20;;;1.33;;
56718;SDS011;42597;40.636;0.278;2023-05-07T02:01:18;3.45;;;1.17;;
56718;SDS011;42597;40.636;0.278;2023-05-07T02:03:43;6.40;;;1.80;;
56718;SDS011;42597;40.636;0.278;2023-05-07T02:06:09;1.75;;;1.20;;
56718;SDS011;42597;40.636;0.278;2023-05-07T02:08:35;2.35;;;1.25;;
56718;SDS011;42597;40.636;0.278;2023-05-07T02:11:01;5.93;;;1.55;;
56718;SDS011;42597;40.636;0.278;2023-05-07T02:13:28;3.15;;;1.45;;
56718;SDS011;42597;40.636;0.278;2023-05-07T02:15:55;11.05;;;2.00;;
56718;SDS011;42597;40.636;0.278;2023-05-07T02:18:21;3.03;;;1.45;;
56718;SDS011;42597;40.636;0.278;2023-05-07T02:20:46;2.08;;;1.10;;
56718;SDS011;42597;40.636;0.278;2023-05-07T02:23:12;4.00;;;1.40;;
56718;SDS011;42597;40.636;0.278;2023-05-07T02:25:37;8.20;;;1.90;;
56718;SDS011;42597;40.636;0.278;2023-05-07T02:28:03;2.95;;;1.30;;
56718;SDS011;42597;40.636;0.278;2023-05-07T02:30:29;2.60;;;1.45;;
56718;SDS011;42597;40.636;0.278;2023-05-07T02:32:54;2.78;;;1.38;;
56718;SDS011;42597;40.636;0.278;2023-05-07T02:35:20;4.28;;;1.85;;
56718;SDS011;42597;40.636;0.278;2023-05-07T02:37:45;4.03;;;1.63;;
56718;SDS011;42597;40.636;0.278;2023-05-07T02:40:11;6.20;;;1.95;;
56718;SDS011;42597;40.636;0.278;2023-05-07T02:42:37;3.20;;;1.55;;
56718;SDS011;42597;40.636;0.278;2023-05-07T02:45:02;3.20;;;1.42;;
56718;SDS011;42597;40.636;0.278;2023-05-07T02:47:28;5.63;;;1.50;;
56718;SDS011;42597;40.636;0.278;2023-05-07T02:49:54;5.72;;;2.70;;
56718;SDS011;42597;40.636;0.278;2023-05-07T02:52:20;27.90;;;3.65;;
56718;SDS011;42597;40.636;0.278;2023-05-07T02:54:46;3.63;;;1.38;;
56718;SDS011;42597;40.636;0.278;2023-05-07T02:57:12;4.05;;;1.70;;
56718;SDS011;42597;40.636;0.278;2023-05-07T02:59:37;4.13;;;1.60;;
56718;SDS011;42597;40.636;0.278;2023-05-07T03:02:03;4.32;;;1.75;;
56718;SDS011;42597;40.636;0.278;2023-05-07T03:04:29;6.57;;;1.65;;
56718;SDS011;42597;40.636;0.278;2023-05-07T03:06:55;6.28;;;1.80;;
56718;SDS011;42597;40.636;0.278;2023-05-07T03:09:21;8.07;;;2.40;;
56718;SDS011;42597;40.636;0.278;2023-05-07T03:11:46;8.98;;;2.15;;
56718;SDS011;42597;40.636;0.278;2023-05-07T03:14:12;2.47;;;1.70;;
56718;SDS011;42597;40.636;0.278;2023-05-07T03:16:39;4.78;;;1.83;;
56718;SDS011;42597;40.636;0.278;2023-05-07T03:19:05;2.78;;;1.50;;
56718;SDS011;42597;40.636;0.278;2023-05-07T03:21:31;2.35;;;1.25;;
56718;SDS011;42597;40.636;0.278;2023-05-07T03:23:58;2.83;;;1.33;;
56718;SDS011;42597;40.636;0.278;2023-05-07T03:26:24;2.75;;;1.50;;
56718;SDS011;42597;40.636;0.278;2023-05-07T03:28:50;5.35;;;1.83;;
56718;SDS011;42597;40.636;0.278;2023-05-07T03:31:16;3.15;;;1.63;;
56718;SDS011;42597;40.636;0.278;2023-05-07T03:33:50;2.75;;;1.55;;
56718;SDS011;42597;40.636;0.278;2023-05-07T03:36:17;3.30;;;1.88;;
56718;SDS011;42597;40.636;0.278;2023-05-07T03:38:43;2.15;;;1.50;;
56718;SDS011;42597;40.636;0.278;2023-05-07T03:41:08;5.28;;;1.98;;
56718;SDS011;42597;40.636;0.278;2023-05-07T03:43:34;6.13;;;2.50;;
56718;SDS011;42597;40.636;0.278;2023-05-07T03:46:00;5.38;;;2.88;;
56718;SDS011;42597;40.636;0.278;2023-05-07T03:48:25;7.18;;;4.63;;
56718;SDS011;42597;40.636;0.278;2023-05-07T03:50:51;7.68;;;4.03;;
56718;SDS011;42597;40.636;0.278;2023-05-07T03:53:17;8.25;;;4.60;;
56718;SDS011;42597;40.636;0.278;2023-05-07T03:55:43;9.07;;;4.53;;
56718;SDS011;42597;40.636;0.278;2023-05-07T03:58:09;11.95;;;4.13;;
56718;SDS011;42597;40.636;0.278;2023-05-07T04:00:35;9.68;;;3.50;;
56718;SDS011;42597;40.636;0.278;2023-05-07T04:03:03;7.47;;;3.85;;
56718;SDS011;42597;40.636;0.278;2023-05-07T04:05:30;7.03;;;3.83;;
56718;SDS011;42597;40.636;0.278;2023-05-07T04:07:57;8.75;;;3.22;;
56718;SDS011;42597;40.636;0.278;2023-05-07T04:10:24;6.03;;;3.92;;
56718;SDS011;42597;40.636;0.278;2023-05-07T04:12:49;8.48;;;4.07;;
56718;SDS011;42597;40.636;0.278;2023-05-07T04:15:15;5.50;;;3.00;;
56718;SDS011;42597;40.636;0.278;2023-05-07T04:17:41;8.80;;;4.20;;
56718;SDS011;42597;40.636;0.278;2023-05-07T04:20:10;9.90;;;4.13;;
56718;SDS011;42597;40.636;0.278;2023-05-07T04:22:39;6.82;;;3.88;;
56718;SDS011;42597;40.636;0.278;2023-05-07T04:25:05;6.80;;;3.78;;
56718;SDS011;42597;40.636;0.278;2023-05-07T04:27:31;3.47;;;2.20;;
56718;SDS011;42597;40.636;0.278;2023-05-07T04:29:57;11.85;;;3.88;;
56718;SDS011;42597;40.636;0.278;2023-05-07T04:32:23;8.63;;;4.30;;
56718;SDS011;42597;40.636;0.278;2023-05-07T04:34:50;7.00;;;4.22;;
56718;SDS011;42597;40.636;0.278;2023-05-07T04:37:16;9.95;;;5.70;;
56718;SDS011;42597;40.636;0.278;2023-05-07T04:39:42;9.27;;;6.22;;
56718;SDS011;42597;40.636;0.278;2023-05-07T04:42:08;8.73;;;6.35;;
56718;SDS011;42597;40.636;0.278;2023-05-07T04:44:34;12.05;;;7.85;;
56718;SDS011;42597;40.636;0.278;2023-05-07T04:47:02;10.85;;;6.20;;
56718;SDS011;42597;40.636;0.278;2023-05-07T04:49:28;17.45;;;6.55;;
56718;SDS011;42597;40.636;0.278;2023-05-07T04:51:53;9.75;;;6.30;;
56718;SDS011;42597;40.636;0.278;2023-05-07T04:54:19;9.55;;;5.95;;
56718;SDS011;42597;40.636;0.278;2023-05-07T04:56:45;10.98;;;6.53;;
56718;SDS011;42597;40.636;0.278;2023-05-07T04:59:10;7.22;;;3.90;;
56718;SDS011;42597;40.636;0.278;2023-05-07T05:01:36;12.60;;;6.45;;
56718;SDS011;42597;40.636;0.278;2023-05-07T05:04:02;10.57;;;5.50;;
56718;SDS011;42597;40.636;0.278;2023-05-07T05:06:28;6.70;;;4.75;;
56718;SDS011;42597;40.636;0.278;2023-05-07T05:08:54;6.30;;;3.65;;
56718;SDS011;42597;40.636;0.278;2023-05-07T05:11:20;7.20;;;4.68;;
56718;SDS011;42597;40.636;0.278;2023-05-07T05:13:46;8.45;;;5.22;;
56718;SDS011;42597;40.636;0.278;2023-05-07T05:16:14;11.63;;;5.85;;
56718;SDS011;42597;40.636;0.278;2023-05-07T05:18:40;10.57;;;6.30;;
56718;SDS011;42597;40.636;0.278;2023-05-07T05:21:06;10.80;;;5.55;;
56718;SDS011;42597;40.636;0.278;2023-05-07T05:23:32;8.65;;;5.63;;
56718;SDS011;42597;40.636;0.278;2023-05-07T05:25:58;10.27;;;6.55;;
56718;SDS011;42597;40.636;0.278;2023-05-07T05:28:24;10.70;;;7.05;;
56718;SDS011;42597;40.636;0.278;2023-05-07T05:30:50;9.43;;;5.38;;
56718;SDS011;42597;40.636;0.278;2023-05-07T05:33:16;10.07;;;5.90;;
56718;SDS011;42597;40.636;0.278;2023-05-07T05:35:42;7.43;;;5.45;;
56718;SDS011;42597;40.636;0.278;2023-05-07T05:38:07;9.18;;;5.35;;
56718;SDS011;42597;40.636;0.278;2023-05-07T05:40:33;9.70;;;4.57;;
56718;SDS011;42597;40.636;0.278;2023-05-07T05:42:59;7.53;;;5.00;;
56718;SDS011;42597;40.636;0.278;2023-05-07T05:45:25;6.35;;;4.20;;
56718;SDS011;42597;40.636;0.278;2023-05-07T05:47:51;8.27;;;4.78;;
56718;SDS011;42597;40.636;0.278;2023-05-07T05:50:17;7.47;;;3.90;;
56718;SDS011;42597;40.636;0.278;2023-05-07T05:52:43;10.40;;;4.18;;
56718;SDS011;42597;40.636;0.278;2023-05-07T05:55:09;10.48;;;4.25;;
56718;SDS011;42597;40.636;0.278;2023-05-07T05:57:35;7.63;;;4.80;;
56718;SDS011;42597;40.636;0.278;2023-05-07T06:00:01;8.52;;;4.47;;
56718;SDS011;42597;40.636;0.278;2023-05-07T06:02:27;8.15;;;3.88;;
56718;SDS011;42597;40.636;0.278;2023-05-07T06:04:53;7.00;;;2.53;;
56718;SDS011;42597;40.636;0.278;2023-05-07T06:07:19;8.25;;;4.03;;
56718;SDS011;42597;40.636;0.278;2023-05-07T06:09:45;24.55;;;7.80;;
56718;SDS011;42597;40.636;0.278;2023-05-07T06:12:11;8.30;;;3.38;;
56718;SDS011;42597;40.636;0.278;2023-05-07T06:14:37;6.22;;;3.40;;
56718;SDS011;42597;40.636;0.278;2023-05-07T06:17:03;6.43;;;2.90;;
56718;SDS011;42597;40.636;0.278;2023-05-07T06:19:29;6.10;;;3.28;;
56718;SDS011;42597;40.636;0.278;2023-05-07T06:21:54;6.93;;;3.38;;
56718;SDS011;42597;40.636;0.278;2023-05-07T06:24:24;6.43;;;2.42;;
56718;SDS011;42597;40.636;0.278;2023-05-07T06:26:49;8.73;;;2.60;;
56718;SDS011;42597;40.636;0.278;2023-05-07T06:29:15;8.48;;;2.67;;
56718;SDS011;42597;40.636;0.278;2023-05-07T06:31:41;5.60;;;2.45;;
56718;SDS011;42597;40.636;0.278;2023-05-07T06:34:07;8.02;;;2.92;;
56718;SDS011;42597;40.636;0.278;2023-05-07T06:36:33;5.20;;;3.00;;
56718;SDS011;42597;40.636;0.278;2023-05-07T06:38:58;8.10;;;3.30;;
56718;SDS011;42597;40.636;0.278;2023-05-07T06:41:24;5.75;;;3.10;;
56718;SDS011;42597;40.636;0.278;2023-05-07T06:43:51;7.38;;;3.08;;
56718;SDS011;42597;40.636;0.278;2023-05-07T06:46:16;7.22;;;2.90;;
56718;SDS011;42597;40.636;0.278;2023-05-07T06:48:42;9.45;;;3.20;;
56718;SDS011;42597;40.636;0.278;2023-05-07T06:51:08;8.20;;;3.35;;
56718;SDS011;42597;40.636;0.278;2023-05-07T06:53:34;7.28;;;3.38;;
56718;SDS011;42597;40.636;0.278;2023-05-07T06:56:00;6.55;;;2.95;;
56718;SDS011;42597;40.636;0.278;2023-05-07T06:58:26;5.18;;;3.08;;
56718;SDS011;42597;40.636;0.278;2023-05-07T07:00:52;6.10;;;3.50;;
56718;SDS011;42597;40.636;0.278;2023-05-07T07:03:18;8.25;;;3.17;;
56718;SDS011;42597;40.636;0.278;2023-05-07T07:05:43;7.68;;;4.22;;
56718;SDS011;42597;40.636;0.278;2023-05-07T07:08:10;7.15;;;3.17;;
56718;SDS011;42597;40.636;0.278;2023-05-07T07:10:36;7.38;;;4.00;;
56718;SDS011;42597;40.636;0.278;2023-05-07T07:13:02;5.90;;;2.80;;
56718;SDS011;42597;40.636;0.278;2023-05-07T07:15:27;6.90;;;3.17;;
56718;SDS011;42597;40.636;0.278;2023-05-07T07:17:53;8.35;;;3.53;;
56718;SDS011;42597;40.636;0.278;2023-05-07T07:20:19;7.45;;;2.85;;
56718;SDS011;42597;40.636;0.278;2023-05-07T07:22:45;10.57;;;4.32;;
56718;SDS011;42597;40.636;0.278;2023-05-07T07:25:10;6.95;;;4.10;;
56718;SDS011;42597;40.636;0.278;2023-05-07T07:27:37;9.45;;;3.97;;
56718;SDS011;42597;40.636;0.278;2023-05-07T07:30:03;12.02;;;3.78;;
56718;SDS011;42597;40.636;0.278;2023-05-07T07:32:29;6.55;;;3.58;;
56718;SDS011;42597;40.636;0.278;2023-05-07T07:34:55;17.30;;;5.68;;
56718;SDS011;42597;40.636;0.278;2023-05-07T07:37:21;6.05;;;3.40;;
56718;SDS011;42597;40.636;0.278;2023-05-07T07:39:46;9.25;;;3.03;;
56718;SDS011;42597;40.636;0.278;2023-05-07T07:42:12;8.98;;;3.40;;
56718;SDS011;42597;40.636;0.278;2023-05-07T07:44:38;11.75;;;6.82;;
56718;SDS011;42597;40.636;0.278;2023-05-07T07:47:04;4.97;;;2.97;;
56718;SDS011;42597;40.636;0.278;2023-05-07T07:49:31;7.53;;;4.10;;
56718;SDS011;42597;40.636;0.278;2023-05-07T07:51:57;5.95;;;3.88;;
56718;SDS011;42597;40.636;0.278;2023-05-07T07:54:24;7.30;;;3.50;;
56718;SDS011;42597;40.636;0.278;2023-05-07T07:56:50;7.22;;;3.65;;
56718;SDS011;42597;40.636;0.278;2023-05-07T07:59:15;8.85;;;4.53;;
56718;SDS011;42597;40.636;0.278;2023-05-07T08:01:44;6.47;;;3.83;;
56718;SDS011;42597;40.636;0.278;2023-05-07T08:04:10;13.43;;;3.28;;
56718;SDS011;42597;40.636;0.278;2023-05-07T08:06:36;6.75;;;2.90;;
56718;SDS011;42597;40.636;0.278;2023-05-07T08:09:03;8.05;;;3.30;;
56718;SDS011;42597;40.636;0.278;2023-05-07T08:11:28;10.10;;;3.72;;
56718;SDS011;42597;40.636;0.278;2023-05-07T08:13:54;6.10;;;3.42;;
56718;SDS011;42597;40.636;0.278;2023-05-07T08:16:21;11.35;;;4.45;;
56718;SDS011;42597;40.636;0.278;2023-05-07T08:18:46;7.05;;;3.60;;
56718;SDS011;42597;40.636;0.278;2023-05-07T08:21:12;8.18;;;3.88;;
56718;SDS011;42597;40.636;0.278;2023-05-07T08:23:38;5.35;;;3.17;;
56718;SDS011;42597;40.636;0.278;2023-05-07T08:26:04;11.85;;;4.18;;
56718;SDS011;42597;40.636;0.278;2023-05-07T08:28:30;6.70;;;3.72;;
56718;SDS011;42597;40.636;0.278;2023-05-07T08:30:55;5.20;;;3.33;;
56718;SDS011;42597;40.636;0.278;2023-05-07T08:33:26;5.72;;;4.10;;
56718;SDS011;42597;40.636;0.278;2023-05-07T08:35:52;6.13;;;4.20;;
56718;SDS011;42597;40.636;0.278;2023-05-07T08:38:17;7.22;;;3.28;;
56718;SDS011;42597;40.636;0.278;2023-05-07T08:40:43;5.30;;;3.15;;
56718;SDS011;42597;40.636;0.278;2023-05-07T08:43:12;7.03;;;3.13;;
56718;SDS011;42597;40.636;0.278;2023-05-07T08:48:05;11.02;;;3.63;;
56718;SDS011;42597;40.636;0.278;2023-05-07T08:50:35;5.65;;;3.40;;
56718;SDS011;42597;40.636;0.278;2023-05-07T08:53:05;5.13;;;2.70;;
56718;SDS011;42597;40.636;0.278;2023-05-07T08:57:56;5.95;;;3.53;;
56718;SDS011;42597;40.636;0.278;2023-05-07T09:00:22;6.18;;;3.20;;
56718;SDS011;42597;40.636;0.278;2023-05-07T09:02:48;8.73;;;3.53;;
56718;SDS011;42597;40.636;0.278;2023-05-07T09:05:13;5.82;;;3.22;;
56718;SDS011;42597;40.636;0.278;2023-05-07T09:07:39;7.10;;;3.65;;
56718;SDS011;42597;40.636;0.278;2023-05-07T09:10:05;6.95;;;3.28;;
56718;SDS011;42597;40.636;0.278;2023-05-07T09:12:32;6.95;;;3.83;;
56718;SDS011;42597;40.636;0.278;2023-05-07T09:15:00;6.85;;;3.83;;
56718;SDS011;42597;40.636;0.278;2023-05-07T09:17:27;12.52;;;4.40;;
56718;SDS011;42597;40.636;0.278;2023-05-07T09:19:53;7.47;;;3.15;;
56718;SDS011;42597;40.636;0.278;2023-05-07T09:22:19;9.98;;;3.05;;
56718;SDS011;42597;40.636;0.278;2023-05-07T09:24:47;6.15;;;2.97;;
56718;SDS011;42597;40.636;0.278;2023-05-07T09:27:14;4.43;;;2.53;;
56718;SDS011;42597;40.636;0.278;2023-05-07T09:29:40;6.32;;;2.92;;
56718;SDS011;42597;40.636;0.278;2023-05-07T09:32:07;7.93;;;3.15;;
56718;SDS011;42597;40.636;0.278;2023-05-07T09:34:34;5.45;;;2.72;;
56718;SDS011;42597;40.636;0.278;2023-05-07T09:37:01;6.18;;;3.42;;
56718;SDS011;42597;40.636;0.278;2023-05-07T09:42:06;6.82;;;2.72;;
56718;SDS011;42597;40.636;0.278;2023-05-07T09:44:32;5.70;;;3.17;;
56718;SDS011;42597;40.636;0.278;2023-05-07T09:46:59;6.95;;;3.20;;
56718;SDS011;42597;40.636;0.278;2023-05-07T09:49:25;6.50;;;2.97;;
56718;SDS011;42597;40.636;0.278;2023-05-07T09:51:57;10.60;;;3.70;;
56718;SDS011;42597;40.636;0.278;2023-05-07T09:56:54;5.63;;;2.95;;
56718;SDS011;42597;40.636;0.278;2023-05-07T09:59:21;8.88;;;4.00;;
56718;SDS011;42597;40.636;0.278;2023-05-07T10:01:48;3.92;;;2.05;;
56718;SDS011;42597;40.636;0.278;2023-05-07T10:04:14;5.40;;;3.35;;
56718;SDS011;42597;40.636;0.278;2023-05-07T10:06:40;6.25;;;3.30;;
56718;SDS011;42597;40.636;0.278;2023-05-07T10:09:07;6.10;;;3.38;;
56718;SDS011;42597;40.636;0.278;2023-05-07T10:11:35;10.27;;;3.17;;
56718;SDS011;42597;40.636;0.278;2023-05-07T10:14:04;7.00;;;3.90;;
56718;SDS011;42597;40.636;0.278;2023-05-07T10:16:33;6.00;;;3.05;;
56718;SDS011;42597;40.636;0.278;2023-05-07T10:19:04;5.90;;;2.83;;
56718;SDS011;42597;40.636;0.278;2023-05-07T10:21:31;5.10;;;2.70;;
56718;SDS011;42597;40.636;0.278;2023-05-07T10:24:05;5.28;;;2.50;;
56718;SDS011;42597;40.636;0.278;2023-05-07T10:26:40;6.18;;;3.28;;
56718;SDS011;42597;40.636;0.278;2023-05-07T10:29:32;5.40;;;3.35;;
56718;SDS011;42597;40.636;0.278;2023-05-07T10:32:30;5.45;;;2.95;;
56718;SDS011;42597;40.636;0.278;2023-05-07T10:35:03;4.67;;;2.83;;
56718;SDS011;42597;40.636;0.278;2023-05-07T10:37:32;5.38;;;3.00;;
56718;SDS011;42597;40.636;0.278;2023-05-07T10:39:58;7.60;;;2.85;;
56718;SDS011;42597;40.636;0.278;2023-05-07T10:42:24;10.45;;;3.42;;
56718;SDS011;42597;40.636;0.278;2023-05-07T10:44:50;7.13;;;2.47;;
56718;SDS011;42597;40.636;0.278;2023-05-07T10:47:16;6.25;;;2.42;;
56718;SDS011;42597;40.636;0.278;2023-05-07T10:54:39;5.63;;;2.45;;
56718;SDS011;42597;40.636;0.278;2023-05-07T11:00:04;4.05;;;2.53;;
56718;SDS011;42597;40.636;0.278;2023-05-07T11:05:32;3.90;;;2.08;;
56718;SDS011;42597;40.636;0.278;2023-05-07T11:08:02;3.05;;;2.20;;
56718;SDS011;42597;40.636;0.278;2023-05-07T11:11:14;5.95;;;2.70;;
56718;SDS011;42597;40.636;0.278;2023-05-07T11:13:18;3.65;;;2.40;;
56718;SDS011;42597;40.636;0.278;2023-05-07T11:16:04;4.93;;;2.35;;
56718;SDS011;42597;40.636;0.278;2023-05-07T11:18:48;8.35;;;2.97;;
56718;SDS011;42597;40.636;0.278;2023-05-07T11:23:59;6.38;;;3.03;;
56718;SDS011;42597;40.636;0.278;2023-05-07T11:26:28;6.80;;;2.47;;
56718;SDS011;42597;40.636;0.278;2023-05-07T11:28:56;10.73;;;3.03;;
56718;SDS011;42597;40.636;0.278;2023-05-07T11:31:25;6.93;;;2.17;;
56718;SDS011;42597;40.636;0.278;2023-05-07T11:33:53;5.32;;;2.60;;
56718;SDS011;42597;40.636;0.278;2023-05-07T11:36:20;8.35;;;2.40;;
56718;SDS011;42597;40.636;0.278;2023-05-07T11:38:47;5.93;;;2.63;;
56718;SDS011;42597;40.636;0.278;2023-05-07T11:41:13;5.13;;;2.78;;
56718;SDS011;42597;40.636;0.278;2023-05-07T11:43:53;4.30;;;2.60;;
56718;SDS011;42597;40.636;0.278;2023-05-07T11:46:22;6.15;;;3.25;;
56718;SDS011;42597;40.636;0.278;2023-05-07T11:48:48;6.45;;;2.53;;
56718;SDS011;42597;40.636;0.278;2023-05-07T11:51:18;9.70;;;2.53;;
56718;SDS011;42597;40.636;0.278;2023-05-07T11:53:44;4.22;;;2.38;;
56718;SDS011;42597;40.636;0.278;2023-05-07T11:56:11;5.65;;;2.55;;
56718;SDS011;42597;40.636;0.278;2023-05-07T11:58:39;3.97;;;2.30;;
56718;SDS011;42597;40.636;0.278;2023-05-07T12:01:09;5.78;;;2.75;;
56718;SDS011;42597;40.636;0.278;2023-05-07T12:03:37;5.43;;;2.78;;
56718;SDS011;42597;40.636;0.278;2023-05-07T12:06:07;6.55;;;3.15;;
56718;SDS011;42597;40.636;0.278;2023-05-07T12:08:36;7.13;;;2.92;;
56718;SDS011;42597;40.636;0.278;2023-05-07T12:11:03;10.63;;;4.40;;
56718;SDS011;42597;40.636;0.278;2023-05-07T12:13:33;7.18;;;2.60;;
56718;SDS011;42597;40.636;0.278;2023-05-07T12:15:59;4.47;;;2.45;;
56718;SDS011;42597;40.636;0.278;2023-05-07T12:18:28;5.90;;;2.40;;
56718;SDS011;42597;40.636;0.278;2023-05-07T12:20:55;9.18;;;3.15;;
56718;SDS011;42597;40.636;0.278;2023-05-07T12:23:21;6.25;;;2.97;;
56718;SDS011;42597;40.636;0.278;2023-05-07T12:25:47;5.50;;;2.20;;
56718;SDS011;42597;40.636;0.278;2023-05-07T12:28:14;6.53;;;2.60;;
56718;SDS011;42597;40.636;0.278;2023-05-07T12:30:45;4.70;;;2.80;;
56718;SDS011;42597;40.636;0.278;2023-05-07T12:33:16;6.35;;;2.47;;
56718;SDS011;42597;40.636;0.278;2023-05-07T12:35:49;5.55;;;2.72;;
56718;SDS011;42597;40.636;0.278;2023-05-07T12:38:16;6.22;;;3.20;;
56718;SDS011;42597;40.636;0.278;2023-05-07T12:40:46;4.57;;;2.63;;
56718;SDS011;42597;40.636;0.278;2023-05-07T12:43:25;10.82;;;3.17;;
56718;SDS011;42597;40.636;0.278;2023-05-07T12:45:57;7.68;;;3.20;;
56718;SDS011;42597;40.636;0.278;2023-05-07T12:48:25;10.48;;;3.17;;
56718;SDS011;42597;40.636;0.278;2023-05-07T12:50:55;7.55;;;2.90;;
56718;SDS011;42597;40.636;0.278;2023-05-07T12:53:23;4.65;;;2.33;;
56718;SDS011;42597;40.636;0.278;2023-05-07T12:55:51;5.50;;;2.55;;
56718;SDS011;42597;40.636;0.278;2023-05-07T13:00:55;6.93;;;2.78;;
56718;SDS011;42597;40.636;0.278;2023-05-07T13:03:33;8.27;;;3.38;;
56718;SDS011;42597;40.636;0.278;2023-05-07T13:06:04;7.15;;;3.85;;
56718;SDS011;42597;40.636;0.278;2023-05-07T13:11:03;7.07;;;3.65;;
56718;SDS011;42597;40.636;0.278;2023-05-07T13:13:33;5.32;;;2.80;;
56718;SDS011;42597;40.636;0.278;2023-05-07T13:16:03;7.15;;;2.60;;
56718;SDS011;42597;40.636;0.278;2023-05-07T13:18:30;11.52;;;3.55;;
56718;SDS011;42597;40.636;0.278;2023-05-07T13:20:57;5.13;;;2.75;;
56718;SDS011;42597;40.636;0.278;2023-05-07T13:23:23;6.07;;;2.83;;
56718;SDS011;42597;40.636;0.278;2023-05-07T13:25:50;7.15;;;2.10;;
56718;SDS011;42597;40.636;0.278;2023-05-07T13:28:17;9.13;;;2.88;;
56718;SDS011;42597;40.636;0.278;2023-05-07T13:30:43;3.72;;;2.40;;
56718;SDS011;42597;40.636;0.278;2023-05-07T13:33:09;4.53;;;2.47;;
56718;SDS011;42597;40.636;0.278;2023-05-07T13:35:35;5.47;;;2.67;;
56718;SDS011;42597;40.636;0.278;2023-05-07T13:38:01;5.53;;;2.60;;
56718;SDS011;42597;40.636;0.278;2023-05-07T13:40:26;4.63;;;2.78;;
56718;SDS011;42597;40.636;0.278;2023-05-07T13:42:53;4.72;;;2.30;;
56718;SDS011;42597;40.636;0.278;2023-05-07T13:45:19;5.10;;;2.28;;
56718;SDS011;42597;40.636;0.278;2023-05-07T13:47:45;6.47;;;2.50;;
56718;SDS011;42597;40.636;0.278;2023-05-07T13:50:11;6.13;;;2.63;;
56718;SDS011;42597;40.636;0.278;2023-05-07T13:52:41;7.20;;;2.97;;
56718;SDS011;42597;40.636;0.278;2023-05-07T13:55:09;6.65;;;2.80;;
56718;SDS011;42597;40.636;0.278;2023-05-07T13:57:36;5.72;;;2.80;;
56718;SDS011;42597;40.636;0.278;2023-05-07T14:00:03;5.65;;;2.88;;
56718;SDS011;42597;40.636;0.278;2023-05-07T14:02:30;10.55;;;2.35;;
56718;SDS011;42597;40.636;0.278;2023-05-07T14:04:56;5.47;;;2.63;;
56718;SDS011;42597;40.636;0.278;2023-05-07T14:07:22;5.10;;;2.75;;
56718;SDS011;42597;40.636;0.278;2023-05-07T14:09:48;7.07;;;2.40;;
56718;SDS011;42597;40.636;0.278;2023-05-07T14:12:14;7.90;;;2.85;;
56718;SDS011;42597;40.636;0.278;2023-05-07T14:14:39;4.78;;;2.55;;
56718;SDS011;42597;40.636;0.278;2023-05-07T14:17:05;7.13;;;2.97;;
56718;SDS011;42597;40.636;0.278;2023-05-07T14:19:31;6.15;;;2.95;;
56718;SDS011;42597;40.636;0.278;2023-05-07T14:21:57;9.57;;;2.80;;
56718;SDS011;42597;40.636;0.278;2023-05-07T14:24:23;6.43;;;3.00;;
56718;SDS011;42597;40.636;0.278;2023-05-07T14:26:49;6.63;;;2.92;;
56718;SDS011;42597;40.636;0.278;2023-05-07T14:29:15;5.22;;;2.50;;
56718;SDS011;42597;40.636;0.278;2023-05-07T14:31:44;7.13;;;3.13;;
56718;SDS011;42597;40.636;0.278;2023-05-07T14:34:10;4.82;;;2.47;;
56718;SDS011;42597;40.636;0.278;2023-05-07T14:36:36;5.15;;;2.50;;
56718;SDS011;42597;40.636;0.278;2023-05-07T14:39:03;5.80;;;2.97;;
56718;SDS011;42597;40.636;0.278;2023-05-07T14:41:29;5.32;;;2.78;;
56718;SDS011;42597;40.636;0.278;2023-05-07T14:43:56;5.72;;;2.75;;
56718;SDS011;42597;40.636;0.278;2023-05-07T14:46:24;6.60;;;3.38;;
56718;SDS011;42597;40.636;0.278;2023-05-07T14:48:50;12.75;;;3.20;;
56718;SDS011;42597;40.636;0.278;2023-05-07T14:51:15;3.78;;;2.15;;
56718;SDS011;42597;40.636;0.278;2023-05-07T14:53:41;7.72;;;2.60;;
56718;SDS011;42597;40.636;0.278;2023-05-07T14:56:07;3.22;;;2.13;;
56718;SDS011;42597;40.636;0.278;2023-05-07T14:58:33;5.53;;;2.80;;
56718;SDS011;42597;40.636;0.278;2023-05-07T15:01:00;4.78;;;2.38;;
56718;SDS011;42597;40.636;0.278;2023-05-07T15:03:26;6.88;;;2.22;;
56718;SDS011;42597;40.636;0.278;2023-05-07T15:05:52;7.47;;;3.20;;
56718;SDS011;42597;40.636;0.278;2023-05-07T15:08:18;4.88;;;2.42;;
56718;SDS011;42597;40.636;0.278;2023-05-07T15:10:44;7.13;;;2.72;;
56718;SDS011;42597;40.636;0.278;2023-05-07T15:13:11;11.48;;;3.35;;